PWSweather.com
Personal Weather Stations
Station Observations
REUBENS
Camas Prairie, Reubens, ID

Camas PrairieReubens, ID

Lat: 46.35417, Lon: -116.53167

Elevation: 3480

Station Type: Davis VantagePro 2

http://www.theobrienranch.com/wx/wx.htm

Latest ConditionsUpdated 7:30:01 PM PDT Tuesday, Sep 23, 2014
Currently Today's Max Today's Min Today's Average
Temperature 67.7°F19.8°C 74.4°F23.6°C 55.0°F12.8°C 63.9°F17.7°C
Dew Point 54.2°F12.3°C 58.4°F14.7°C 51.5°F10.8°C 54.1°F12.3°C
Winds Calm Calm 14.3 mph SW23.0 kmh SW - 5.2 mph 8.4 kmh
Wind Gusts -- 19.0 mph30.6 kmh - -
Humidity 62% 92% 45% 72%
Pressure 29.80 in1009.1 mb 29.90 in1012.5 mb 29.79 in1008.8 mb -
Precipitation - 0.10 in2.5 mm - -
Hour Temp Dew Point Humidity Winds Wind Gusts Pressure Precip Precip Rate Daily Precip Total
07:30 PM 67.7°F19.8°C 54.2°F12.3°C 62% Calm Calm -- 29.80 in1009.1 mb 0.00 in0.0 mm 0.00 in/hr0.0 mm/hr 0.10 in2.5 mm
07:00 PM 67.9°F19.9°C 54.4°F12.4°C 62% Calm Calm -- 29.80 in1009.1 mb 0.00 in0.0 mm 0.00 in/hr0.0 mm/hr 0.10 in2.5 mm
06:30 PM 69.4°F20.8°C 54.9°F12.7°C 60% Calm Calm -- 29.80 in1009.1 mb 0.00 in0.0 mm 0.00 in/hr0.0 mm/hr 0.10 in2.5 mm
06:00 PM 70.3°F21.3°C 55.3°F12.9°C 59% Calm Calm -- 29.81 in1009.5 mb 0.00 in0.0 mm 0.00 in/hr0.0 mm/hr 0.10 in2.5 mm
05:30 PM 71.0°F21.7°C 55.5°F13.1°C 58% 1.4 mph NNE2.3 kmh NNE 4.0 mph6.4 kmh 29.80 in1009.1 mb 0.00 in0.0 mm 0.00 in/hr0.0 mm/hr 0.10 in2.5 mm
05:00 PM 72.4°F22.4°C 53.2°F11.8°C 51% Calm Calm -- 29.79 in1008.8 mb 0.00 in0.0 mm 0.00 in/hr0.0 mm/hr 0.10 in2.5 mm
04:30 PM 73.4°F23.0°C 52.5°F11.4°C 48% 0.3 mph W0.5 kmh W 1.0 mph1.6 kmh 29.80 in1009.1 mb 0.00 in0.0 mm 0.00 in/hr0.0 mm/hr 0.10 in2.5 mm
04:00 PM 73.3°F22.9°C 53.0°F11.7°C 49% 2.3 mph W3.7 kmh W 3.0 mph4.8 kmh 29.80 in1009.1 mb 0.00 in0.0 mm 0.00 in/hr0.0 mm/hr 0.10 in2.5 mm
03:30 PM 73.2°F22.9°C 52.9°F11.6°C 49% 3.4 mph WSW5.5 kmh WSW 7.0 mph11.3 kmh 29.81 in1009.5 mb 0.00 in0.0 mm 0.00 in/hr0.0 mm/hr 0.10 in2.5 mm
03:00 PM 74.2°F23.4°C 51.5°F10.8°C 45% 8.1 mph W13.0 kmh W 10.0 mph16.1 kmh 29.81 in1009.5 mb 0.00 in0.0 mm 0.00 in/hr0.0 mm/hr 0.10 in2.5 mm
02:30 PM 74.4°F23.6°C 55.1°F12.8°C 51% 5.5 mph WSW8.9 kmh WSW 9.0 mph14.5 kmh 29.81 in1009.5 mb 0.00 in0.0 mm 0.00 in/hr0.0 mm/hr 0.10 in2.5 mm
02:00 PM 73.1°F22.8°C 56.0°F13.3°C 55% 3.2 mph SSW5.1 kmh SSW 5.0 mph8.0 kmh 29.80 in1009.1 mb 0.00 in0.0 mm 0.00 in/hr0.0 mm/hr 0.10 in2.5 mm
01:30 PM 71.2°F21.8°C 58.4°F14.7°C 64% 0.3 mph ENE0.5 kmh ENE 2.0 mph3.2 kmh 29.81 in1009.5 mb 0.00 in0.0 mm 0.00 in/hr0.0 mm/hr 0.10 in2.5 mm
01:00 PM 69.4°F20.8°C 58.4°F14.7°C 68% 7.6 mph E12.2 kmh E 9.0 mph14.5 kmh 29.82 in1009.8 mb 0.00 in0.0 mm 0.00 in/hr0.0 mm/hr 0.10 in2.5 mm
12:30 PM 68.4°F20.2°C 57.8°F14.3°C 69% 2.8 mph SE4.5 kmh SE 5.0 mph8.0 kmh 29.83 in1010.2 mb 0.00 in0.0 mm 0.00 in/hr0.0 mm/hr 0.10 in2.5 mm
12:00 PM 67.5°F19.7°C 57.7°F14.3°C 71% 1.3 mph SE2.1 kmh SE 5.0 mph8.0 kmh 29.83 in1010.2 mb 0.00 in0.0 mm 0.00 in/hr0.0 mm/hr 0.10 in2.5 mm
11:30 AM 64.3°F17.9°C 56.2°F13.4°C 75% 5.1 mph ESE8.2 kmh ESE 6.0 mph9.7 kmh 29.84 in1010.5 mb 0.00 in0.0 mm 0.00 in/hr0.0 mm/hr 0.10 in2.5 mm
11:00 AM 64.5°F18.1°C 55.7°F13.2°C 73% 11.6 mph SE18.7 kmh SE 13.0 mph20.9 kmh 29.83 in1010.2 mb 0.00 in0.0 mm 0.00 in/hr0.0 mm/hr 0.10 in2.5 mm
10:30 AM 63.0°F17.2°C 56.0°F13.3°C 78% 7.5 mph SE12.1 kmh SE 10.0 mph16.1 kmh 29.85 in1010.8 mb 0.00 in0.0 mm 0.00 in/hr0.0 mm/hr 0.10 in2.5 mm
10:00 AM 61.7°F16.5°C 54.4°F12.4°C 77% 4.8 mph SSE7.7 kmh SSE 6.0 mph9.7 kmh 29.87 in1011.5 mb 0.00 in0.0 mm 0.00 in/hr0.0 mm/hr 0.10 in2.5 mm
09:30 AM 59.6°F15.3°C 53.5°F11.9°C 80% 13.9 mph ESE22.4 kmh ESE 15.0 mph24.1 kmh 29.84 in1010.5 mb 0.01 in0.3 mm 0.02 in/hr0.5 mm/hr 0.10 in2.5 mm
09:00 AM 59.9°F15.5°C 53.7°F12.1°C 80% 4.9 mph SE7.9 kmh SE 7.0 mph11.3 kmh 29.86 in1011.2 mb 0.00 in0.0 mm 0.00 in/hr0.0 mm/hr 0.09 in2.3 mm
08:30 AM 59.0°F15.0°C 54.2°F12.3°C 84% 4.0 mph ESE6.4 kmh ESE 5.0 mph8.0 kmh 29.87 in1011.5 mb 0.00 in0.0 mm 0.00 in/hr0.0 mm/hr 0.09 in2.3 mm
08:00 AM 57.5°F14.2°C 53.3°F11.8°C 86% 5.8 mph ESE9.3 kmh ESE 7.0 mph11.3 kmh 29.87 in1011.5 mb 0.00 in0.0 mm 0.00 in/hr0.0 mm/hr 0.09 in2.3 mm
07:30 AM 56.4°F13.6°C 52.9°F11.6°C 88% 6.3 mph SE10.1 kmh SE 7.0 mph11.3 kmh 29.88 in1011.9 mb 0.00 in0.0 mm 0.00 in/hr0.0 mm/hr 0.09 in2.3 mm
07:00 AM 55.3°F12.9°C 52.4°F11.3°C 90% 6.1 mph SE9.8 kmh SE 7.0 mph11.3 kmh 29.89 in1012.2 mb 0.00 in0.0 mm 0.00 in/hr0.0 mm/hr 0.09 in2.3 mm
06:30 AM 55.0°F12.8°C 51.8°F11.0°C 89% 2.1 mph E3.4 kmh E 3.0 mph4.8 kmh 29.88 in1011.9 mb 0.00 in0.0 mm 0.00 in/hr0.0 mm/hr 0.09 in2.3 mm
06:00 AM 56.4°F13.6°C 53.5°F11.9°C 90% 5.2 mph E8.4 kmh E 8.0 mph12.9 kmh 29.87 in1011.5 mb 0.00 in0.0 mm 0.00 in/hr0.0 mm/hr 0.09 in2.3 mm
05:30 AM 55.5°F13.1°C 53.2°F11.8°C 92% 7.2 mph SSE11.6 kmh SSE 9.0 mph14.5 kmh 29.87 in1011.5 mb 0.01 in0.3 mm 0.02 in/hr0.5 mm/hr 0.09 in2.3 mm
05:00 AM 55.8°F13.2°C 53.2°F11.8°C 91% 8.7 mph E14.0 kmh E 10.0 mph16.1 kmh 29.85 in1010.8 mb 0.02 in0.5 mm 0.04 in/hr1.0 mm/hr 0.08 in2.0 mm
04:30 AM 56.3°F13.5°C 53.1°F11.7°C 89% 3.2 mph S5.1 kmh S 5.0 mph8.0 kmh 29.90 in1012.5 mb 0.01 in0.3 mm 0.02 in/hr0.5 mm/hr 0.06 in1.5 mm
04:00 AM 56.2°F13.4°C 52.7°F11.5°C 88% 4.1 mph SE6.6 kmh SE 5.0 mph8.0 kmh 29.88 in1011.9 mb 0.01 in0.3 mm 0.02 in/hr0.5 mm/hr 0.05 in1.3 mm
03:30 AM 57.8°F14.3°C 52.7°F11.5°C 83% 2.8 mph ENE4.5 kmh ENE 4.0 mph6.4 kmh 29.88 in1011.9 mb 0.00 in0.0 mm 0.00 in/hr0.0 mm/hr 0.04 in1.0 mm
03:00 AM 57.6°F14.2°C 52.8°F11.6°C 84% 5.4 mph ENE8.7 kmh ENE 6.0 mph9.7 kmh 29.86 in1011.2 mb 0.00 in0.0 mm 0.00 in/hr0.0 mm/hr 0.04 in1.0 mm
02:30 AM 58.6°F14.8°C 52.8°F11.6°C 81% 3.5 mph S5.6 kmh S 5.0 mph8.0 kmh 29.86 in1011.2 mb 0.00 in0.0 mm 0.00 in/hr0.0 mm/hr 0.04 in1.0 mm
02:00 AM 62.3°F16.8°C 52.7°F11.5°C 71% 6.5 mph ESE10.5 kmh ESE 7.0 mph11.3 kmh 29.86 in1011.2 mb 0.03 in0.8 mm 0.06 in/hr1.5 mm/hr 0.04 in1.0 mm
01:30 AM 60.2°F15.7°C 53.7°F12.1°C 79% 14.3 mph SW23.0 kmh SW 19.0 mph30.6 kmh 29.89 in1012.2 mb 0.01 in0.3 mm 0.02 in/hr0.5 mm/hr 0.01 in0.3 mm
01:00 AM 61.9°F16.6°C 53.1°F11.7°C 73% 12.5 mph WSW20.1 kmh WSW 15.0 mph24.1 kmh 29.89 in1012.2 mb 0.00 in0.0 mm 0.00 in/hr0.0 mm/hr 0.00 in0.0 mm
12:30 AM 63.0°F17.2°C 52.6°F11.4°C 69% 13.5 mph W21.7 kmh W 18.0 mph29.0 kmh 29.86 in1011.2 mb 0.00 in0.0 mm 0.00 in/hr0.0 mm/hr 0.00 in0.0 mm
12:00 AM 62.3°F16.8°C 51.6°F10.9°C 68% 10.8 mph W17.4 kmh W 19.0 mph30.6 kmh 29.86 in1011.2 mb 0.00 in0.0 mm 0.00 in/hr0.0 mm/hr 0.00 in0.0 mm